sensor_id;sensor_type;location;lat;lon;timestamp;pressure;altitude;pressure_sealevel;temperature;humidity
5138;BME280;53959;53.626;11.410;2023-07-13T00:02:18;100671.06;;;17.94;71.46
5138;BME280;53959;53.626;11.410;2023-07-13T00:04:44;100667.75;;;17.89;71.69
5138;BME280;53959;53.626;11.410;2023-07-13T00:07:09;100666.53;;;17.79;71.83
5138;BME280;53959;53.626;11.410;2023-07-13T00:09:34;100664.03;;;17.92;71.68
5138;BME280;53959;53.626;11.410;2023-07-13T00:12:00;100661.50;;;18.05;71.47
5138;BME280;53959;53.626;11.410;2023-07-13T00:14:28;100653.28;;;17.76;72.18
5138;BME280;53959;53.626;11.410;2023-07-13T00:16:54;100658.66;;;17.76;72.59
5138;BME280;53959;53.626;11.410;2023-07-13T00:19:19;100659.25;;;17.81;72.73
5138;BME280;53959;53.626;11.410;2023-07-13T00:21:45;100665.66;;;17.79;72.78
5138;BME280;53959;53.626;11.410;2023-07-13T00:24:14;100662.03;;;17.80;72.88
5138;BME280;53959;53.626;11.410;2023-07-13T00:26:41;100656.50;;;17.83;72.92
5138;BME280;53959;53.626;11.410;2023-07-13T00:29:10;100657.25;;;17.85;72.72
5138;BME280;53959;53.626;11.410;2023-07-13T00:31:35;100661.59;;;17.87;72.98
5138;BME280;53959;53.626;11.410;2023-07-13T00:34:02;100665.19;;;17.70;73.20
5138;BME280;53959;53.626;11.410;2023-07-13T00:36:30;100666.63;;;17.78;72.77
5138;BME280;53959;53.626;11.410;2023-07-13T00:38:56;100670.78;;;17.83;73.03
5138;BME280;53959;53.626;11.410;2023-07-13T00:41:23;100676.09;;;17.67;73.65
5138;BME280;53959;53.626;11.410;2023-07-13T00:43:49;100682.97;;;17.73;73.53
5138;BME280;53959;53.626;11.410;2023-07-13T00:46:18;100677.28;;;17.79;73.48
5138;BME280;53959;53.626;11.410;2023-07-13T00:48:45;100681.41;;;17.69;74.05
5138;BME280;53959;53.626;11.410;2023-07-13T00:51:17;100670.38;;;17.58;74.23
5138;BME280;53959;53.626;11.410;2023-07-13T00:53:44;100664.63;;;17.48;74.57
5138;BME280;53959;53.626;11.410;2023-07-13T00:56:10;100675.94;;;17.70;74.18
5138;BME280;53959;53.626;11.410;2023-07-13T00:58:36;100674.03;;;17.57;74.46
5138;BME280;53959;53.626;11.410;2023-07-13T01:01:02;100676.78;;;17.55;74.91
5138;BME280;53959;53.626;11.410;2023-07-13T01:03:28;100674.34;;;17.51;74.80
5138;BME280;53959;53.626;11.410;2023-07-13T01:05:54;100672.47;;;17.68;74.30
5138;BME280;53959;53.626;11.410;2023-07-13T01:08:20;100670.53;;;17.55;74.80
5138;BME280;53959;53.626;11.410;2023-07-13T01:10:57;100667.03;;;17.37;75.02
5138;BME280;53959;53.626;11.410;2023-07-13T01:13:23;100667.94;;;17.53;74.68
5138;BME280;53959;53.626;11.410;2023-07-13T01:15:51;100666.03;;;17.55;74.81
5138;BME280;53959;53.626;11.410;2023-07-13T01:18:22;100666.19;;;17.52;74.92
5138;BME280;53959;53.626;11.410;2023-07-13T01:21:00;100669.16;;;17.63;74.30
5138;BME280;53959;53.626;11.410;2023-07-13T01:23:26;100665.91;;;17.41;75.05
5138;BME280;53959;53.626;11.410;2023-07-13T01:25:54;100665.91;;;17.41;75.31
5138;BME280;53959;53.626;11.410;2023-07-13T01:28:21;100668.59;;;17.41;75.42
5138;BME280;53959;53.626;11.410;2023-07-13T01:30:47;100672.50;;;17.35;75.58
5138;BME280;53959;53.626;11.410;2023-07-13T01:33:14;100668.00;;;17.18;76.01
5138;BME280;53959;53.626;11.410;2023-07-13T01:35:42;100677.47;;;17.26;75.68
5138;BME280;53959;53.626;11.410;2023-07-13T01:38:07;100676.19;;;17.33;75.96
5138;BME280;53959;53.626;11.410;2023-07-13T01:40:34;100682.47;;;17.16;76.21
5138;BME280;53959;53.626;11.410;2023-07-13T01:43:00;100683.50;;;17.13;76.52
5138;BME280;53959;53.626;11.410;2023-07-13T01:45:25;100687.13;;;17.12;76.84
5138;BME280;53959;53.626;11.410;2023-07-13T01:47:51;100684.06;;;17.03;76.79
5138;BME280;53959;53.626;11.410;2023-07-13T01:50:16;100677.81;;;17.02;77.02
5138;BME280;53959;53.626;11.410;2023-07-13T01:52:42;100678.84;;;16.99;77.00
5138;BME280;53959;53.626;11.410;2023-07-13T01:55:07;100675.94;;;16.87;77.60
5138;BME280;53959;53.626;11.410;2023-07-13T01:57:33;100684.09;;;16.85;77.77
5138;BME280;53959;53.626;11.410;2023-07-13T01:59:58;100689.34;;;16.87;77.73
5138;BME280;53959;53.626;11.410;2023-07-13T02:02:24;100695.53;;;16.89;77.57
5138;BME280;53959;53.626;11.410;2023-07-13T02:04:49;100690.31;;;16.86;77.96
5138;BME280;53959;53.626;11.410;2023-07-13T02:07:14;100690.31;;;16.86;77.96
5138;BME280;53959;53.626;11.410;2023-07-13T02:09:40;100694.41;;;16.93;77.52
5138;BME280;53959;53.626;11.410;2023-07-13T02:12:07;100701.25;;;16.81;77.64
5138;BME280;53959;53.626;11.410;2023-07-13T02:14:32;100701.50;;;16.77;77.79
5138;BME280;53959;53.626;11.410;2023-07-13T02:16:58;100707.75;;;16.94;77.72
5138;BME280;53959;53.626;11.410;2023-07-13T02:19:23;100703.59;;;16.70;77.92
5138;BME280;53959;53.626;11.410;2023-07-13T02:21:49;100701.78;;;16.70;78.20
5138;BME280;53959;53.626;11.410;2023-07-13T02:24:15;100709.03;;;16.68;78.17
5138;BME280;53959;53.626;11.410;2023-07-13T02:26:44;100708.31;;;16.47;78.89
5138;BME280;53959;53.626;11.410;2023-07-13T02:29:10;100705.47;;;16.68;78.52
5138;BME280;53959;53.626;11.410;2023-07-13T02:31:35;100709.31;;;16.62;78.14
5138;BME280;53959;53.626;11.410;2023-07-13T02:34:01;100700.97;;;16.68;78.36
5138;BME280;53959;53.626;11.410;2023-07-13T02:36:27;100702.38;;;16.94;77.82
5138;BME280;53959;53.626;11.410;2023-07-13T02:38:52;100706.09;;;16.56;78.29
5138;BME280;53959;53.626;11.410;2023-07-13T02:41:18;100702.19;;;16.80;78.22
5138;BME280;53959;53.626;11.410;2023-07-13T02:43:44;100705.63;;;16.65;78.13
5138;BME280;53959;53.626;11.410;2023-07-13T02:46:09;100708.47;;;16.62;78.16
5138;BME280;53959;53.626;11.410;2023-07-13T02:48:36;100706.25;;;16.52;77.75
5138;BME280;53959;53.626;11.410;2023-07-13T02:51:02;100706.88;;;16.58;77.70
5138;BME280;53959;53.626;11.410;2023-07-13T02:53:28;100711.09;;;16.63;77.46
5138;BME280;53959;53.626;11.410;2023-07-13T02:55:53;100703.97;;;16.62;77.43
5138;BME280;53959;53.626;11.410;2023-07-13T02:58:19;100717.06;;;16.68;77.56
5138;BME280;53959;53.626;11.410;2023-07-13T03:00:46;100706.63;;;16.81;77.38
5138;BME280;53959;53.626;11.410;2023-07-13T03:03:12;100713.63;;;16.66;77.50
5138;BME280;53959;53.626;11.410;2023-07-13T03:05:41;100716.50;;;16.62;77.66
5138;BME280;53959;53.626;11.410;2023-07-13T03:08:08;100717.00;;;16.70;77.52
5138;BME280;53959;53.626;11.410;2023-07-13T03:10:34;100719.50;;;16.74;77.32
5138;BME280;53959;53.626;11.410;2023-07-13T03:13:00;100715.25;;;16.51;78.01
5138;BME280;53959;53.626;11.410;2023-07-13T03:15:27;100713.81;;;16.62;78.12
5138;BME280;53959;53.626;11.410;2023-07-13T03:17:54;100711.63;;;16.52;78.24
5138;BME280;53959;53.626;11.410;2023-07-13T03:20:20;100709.41;;;16.61;78.04
5138;BME280;53959;53.626;11.410;2023-07-13T03:22:45;100713.38;;;16.35;78.72
5138;BME280;53959;53.626;11.410;2023-07-13T03:25:11;100713.25;;;16.38;79.02
5138;BME280;53959;53.626;11.410;2023-07-13T03:27:37;100713.16;;;16.39;78.69
5138;BME280;53959;53.626;11.410;2023-07-13T03:30:05;100710.69;;;16.35;78.61
5138;BME280;53959;53.626;11.410;2023-07-13T03:32:30;100716.28;;;16.30;78.99
5138;BME280;53959;53.626;11.410;2023-07-13T03:34:56;100726.28;;;16.26;79.03
5138;BME280;53959;53.626;11.410;2023-07-13T03:37:22;100718.22;;;16.45;78.45
5138;BME280;53959;53.626;11.410;2023-07-13T03:39:48;100728.47;;;16.37;78.48
5138;BME280;53959;53.626;11.410;2023-07-13T03:42:15;100714.19;;;16.37;78.58
5138;BME280;53959;53.626;11.410;2023-07-13T03:44:41;100711.66;;;16.34;78.62
5138;BME280;53959;53.626;11.410;2023-07-13T03:47:07;100730.06;;;16.22;79.19
5138;BME280;53959;53.626;11.410;2023-07-13T03:49:34;100721.06;;;16.23;79.75
5138;BME280;53959;53.626;11.410;2023-07-13T03:52:00;100722.53;;;16.31;79.75
5138;BME280;53959;53.626;11.410;2023-07-13T03:54:25;100722.44;;;16.32;79.52
5138;BME280;53959;53.626;11.410;2023-07-13T03:56:51;100721.16;;;16.22;79.79
5138;BME280;53959;53.626;11.410;2023-07-13T03:59:18;100713.81;;;16.44;79.62
5138;BME280;53959;53.626;11.410;2023-07-13T04:01:45;100716.16;;;16.50;79.09
5138;BME280;53959;53.626;11.410;2023-07-13T04:04:11;100713.53;;;16.32;79.40
5138;BME280;53959;53.626;11.410;2023-07-13T04:06:37;100714.19;;;16.37;79.67
5138;BME280;53959;53.626;11.410;2023-07-13T04:09:03;100709.31;;;16.45;79.51
5138;BME280;53959;53.626;11.410;2023-07-13T04:11:32;100715.44;;;16.11;80.25
5138;BME280;53959;53.626;11.410;2023-07-13T04:13:59;100712.69;;;16.12;80.00
5138;BME280;53959;53.626;11.410;2023-07-13T04:16:25;100717.41;;;16.07;80.23
5138;BME280;53959;53.626;11.410;2023-07-13T04:18:50;100718.63;;;16.19;79.98
5138;BME280;53959;53.626;11.410;2023-07-13T04:21:20;100715.44;;;16.11;80.05
5138;BME280;53959;53.626;11.410;2023-07-13T04:23:45;100713.00;;;16.06;79.74
5138;BME280;53959;53.626;11.410;2023-07-13T04:26:11;100713.19;;;16.20;79.67
5138;BME280;53959;53.626;11.410;2023-07-13T04:28:36;100711.34;;;16.21;79.52
5138;BME280;53959;53.626;11.410;2023-07-13T04:31:02;100710.59;;;16.19;79.75
5138;BME280;53959;53.626;11.410;2023-07-13T04:33:27;100711.22;;;16.24;79.24
5138;BME280;53959;53.626;11.410;2023-07-13T04:35:54;100707.75;;;16.22;79.43
5138;BME280;53959;53.626;11.410;2023-07-13T04:38:27;100711.44;;;16.19;79.47
5138;BME280;53959;53.626;11.410;2023-07-13T04:40:58;100715.84;;;16.20;79.66
5138;BME280;53959;53.626;11.410;2023-07-13T04:43:24;100712.91;;;16.26;79.67
5138;BME280;53959;53.626;11.410;2023-07-13T04:45:51;100708.97;;;16.34;79.52
5138;BME280;53959;53.626;11.410;2023-07-13T04:48:17;100706.56;;;16.27;79.35
5138;BME280;53959;53.626;11.410;2023-07-13T04:50:42;100717.88;;;16.34;79.51
5138;BME280;53959;53.626;11.410;2023-07-13T04:53:09;100718.13;;;16.47;79.11
5138;BME280;53959;53.626;11.410;2023-07-13T04:55:36;100717.59;;;16.40;79.08
5138;BME280;53959;53.626;11.410;2023-07-13T04:58:01;100724.81;;;16.38;79.01
5138;BME280;53959;53.626;11.410;2023-07-13T05:00:28;100723.44;;;16.48;78.94
5138;BME280;53959;53.626;11.410;2023-07-13T05:02:55;100721.72;;;16.65;78.34
5138;BME280;53959;53.626;11.410;2023-07-13T05:05:21;100729.88;;;16.81;77.87
5138;BME280;53959;53.626;11.410;2023-07-13T05:07:46;100727.56;;;16.73;77.39
5138;BME280;53959;53.626;11.410;2023-07-13T05:10:12;100726.06;;;16.67;77.30
5138;BME280;53959;53.626;11.410;2023-07-13T05:12:37;100721.41;;;16.71;76.99
5138;BME280;53959;53.626;11.410;2023-07-13T05:15:03;100724.53;;;16.81;76.62
5138;BME280;53959;53.626;11.410;2023-07-13T05:17:29;100720.13;;;16.80;76.34
5138;BME280;53959;53.626;11.410;2023-07-13T05:19:54;100720.13;;;16.80;76.65
5138;BME280;53959;53.626;11.410;2023-07-13T05:22:19;100722.34;;;16.89;76.20
5138;BME280;53959;53.626;11.410;2023-07-13T05:24:45;100721.88;;;17.15;75.43
5138;BME280;53959;53.626;11.410;2023-07-13T05:27:10;100718.84;;;16.87;75.59
5138;BME280;53959;53.626;11.410;2023-07-13T05:29:36;100725.94;;;17.22;75.03
5138;BME280;53959;53.626;11.410;2023-07-13T05:32:01;100729.97;;;17.31;74.41
5138;BME280;53959;53.626;11.410;2023-07-13T05:34:27;100730.34;;;17.41;73.74
5138;BME280;53959;53.626;11.410;2023-07-13T05:36:52;100731.44;;;17.37;73.56
5138;BME280;53959;53.626;11.410;2023-07-13T05:39:18;100734.38;;;17.50;73.02
5138;BME280;53959;53.626;11.410;2023-07-13T05:41:44;100732.19;;;17.56;72.91
5138;BME280;53959;53.626;11.410;2023-07-13T05:44:09;100726.78;;;17.58;72.13
5138;BME280;53959;53.626;11.410;2023-07-13T05:46:34;100726.66;;;17.59;71.95
5138;BME280;53959;53.626;11.410;2023-07-13T05:49:00;100736.94;;;17.68;71.47
5138;BME280;53959;53.626;11.410;2023-07-13T05:51:26;100732.31;;;17.88;71.02
5138;BME280;53959;53.626;11.410;2023-07-13T05:53:51;100726.91;;;17.72;70.49
5138;BME280;53959;53.626;11.410;2023-07-13T05:56:17;100728.84;;;17.86;69.93
5138;BME280;53959;53.626;11.410;2023-07-13T05:58:42;100726.94;;;17.88;69.57
5138;BME280;53959;53.626;11.410;2023-07-13T06:01:12;100725.66;;;17.95;69.46
5138;BME280;53959;53.626;11.410;2023-07-13T06:03:38;100730.44;;;18.22;68.90
5138;BME280;53959;53.626;11.410;2023-07-13T06:06:04;100730.53;;;18.36;68.17
5138;BME280;53959;53.626;11.410;2023-07-13T06:08:31;100727.59;;;18.25;68.00
5138;BME280;53959;53.626;11.410;2023-07-13T06:11:13;100731.56;;;18.17;68.30
5138;BME280;53959;53.626;11.410;2023-07-13T06:13:39;100723.34;;;18.36;67.53
5138;BME280;53959;53.626;11.410;2023-07-13T06:16:04;100730.16;;;18.42;66.21
5138;BME280;53959;53.626;11.410;2023-07-13T06:18:32;100730.75;;;18.63;65.83
5138;BME280;53959;53.626;11.410;2023-07-13T06:20:57;100735.56;;;18.88;65.50
5138;BME280;53959;53.626;11.410;2023-07-13T06:23:23;100725.03;;;18.99;65.70
5138;BME280;53959;53.626;11.410;2023-07-13T06:25:49;100727.94;;;18.96;64.99
5138;BME280;53959;53.626;11.410;2023-07-13T06:28:15;100738.81;;;19.09;64.32
5138;BME280;53959;53.626;11.410;2023-07-13T06:30:40;100733.47;;;19.23;63.88
5138;BME280;53959;53.626;11.410;2023-07-13T06:33:05;100740.00;;;19.19;63.18
5138;BME280;53959;53.626;11.410;2023-07-13T06:35:31;100740.50;;;19.40;62.31
5138;BME280;53959;53.626;11.410;2023-07-13T06:37:56;100730.53;;;19.42;61.59
5138;BME280;53959;53.626;11.410;2023-07-13T06:40:22;100735.19;;;19.69;61.19
5138;BME280;53959;53.626;11.410;2023-07-13T06:42:47;100735.19;;;19.83;60.94
5138;BME280;53959;53.626;11.410;2023-07-13T06:45:12;100742.41;;;19.68;61.10
5138;BME280;53959;53.626;11.410;2023-07-13T06:47:38;100736.31;;;19.93;60.15
5138;BME280;53959;53.626;11.410;2023-07-13T06:50:03;100742.38;;;19.97;59.41
5138;BME280;53959;53.626;11.410;2023-07-13T06:52:29;100754.69;;;20.15;57.46
5138;BME280;53959;53.626;11.410;2023-07-13T06:54:54;100756.50;;;20.29;57.34
5138;BME280;53959;53.626;11.410;2023-07-13T06:57:19;100750.63;;;20.36;55.24
5138;BME280;53959;53.626;11.410;2023-07-13T06:59:45;100760.25;;;20.55;54.44
5138;BME280;53959;53.626;11.410;2023-07-13T07:02:10;100756.69;;;20.40;54.14
5138;BME280;53959;53.626;11.410;2023-07-13T07:04:36;100753.78;;;20.57;54.26
5138;BME280;53959;53.626;11.410;2023-07-13T07:07:02;100761.28;;;20.79;54.43
5138;BME280;53959;53.626;11.410;2023-07-13T07:09:27;100768.59;;;20.92;54.59
5138;BME280;53959;53.626;11.410;2023-07-13T07:11:55;100772.25;;;20.64;54.86
5138;BME280;53959;53.626;11.410;2023-07-13T07:14:21;100766.84;;;20.64;54.94
5138;BME280;53959;53.626;11.410;2023-07-13T07:16:46;100768.34;;;20.95;54.06
5138;BME280;53959;53.626;11.410;2023-07-13T07:19:11;100774.66;;;20.95;54.40
5138;BME280;53959;53.626;11.410;2023-07-13T07:21:37;100775.50;;;20.96;54.33
5138;BME280;53959;53.626;11.410;2023-07-13T07:24:02;100780.72;;;20.99;54.35
5138;BME280;53959;53.626;11.410;2023-07-13T07:26:29;100775.34;;;21.51;52.81
5138;BME280;53959;53.626;11.410;2023-07-13T07:28:55;100780.94;;;21.48;53.34
5138;BME280;53959;53.626;11.410;2023-07-13T07:31:20;100779.53;;;21.68;53.26
5138;BME280;53959;53.626;11.410;2023-07-13T07:33:45;100780.88;;;21.23;54.12
5138;BME280;53959;53.626;11.410;2023-07-13T07:36:11;100767.97;;;21.53;53.52
5138;BME280;53959;53.626;11.410;2023-07-13T07:38:37;100784.84;;;21.17;54.29
5138;BME280;53959;53.626;11.410;2023-07-13T07:41:05;100779.81;;;20.98;53.96
5138;BME280;53959;53.626;11.410;2023-07-13T07:43:31;100779.72;;;21.40;53.88
5138;BME280;53959;53.626;11.410;2023-07-13T07:45:57;100775.00;;;21.69;53.25
5138;BME280;53959;53.626;11.410;2023-07-13T07:48:22;100776.16;;;22.52;51.94
5138;BME280;53959;53.626;11.410;2023-07-13T07:50:48;100774.75;;;22.10;53.21
5138;BME280;53959;53.626;11.410;2023-07-13T07:53:13;100772.94;;;21.98;52.44
5138;BME280;53959;53.626;11.410;2023-07-13T07:55:38;100777.56;;;22.34;51.37
5138;BME280;53959;53.626;11.410;2023-07-13T07:58:05;100775.84;;;22.20;50.97
5138;BME280;53959;53.626;11.410;2023-07-13T08:00:31;100774.44;;;21.38;52.46
5138;BME280;53959;53.626;11.410;2023-07-13T08:02:57;100776.66;;;21.31;52.50
5138;BME280;53959;53.626;11.410;2023-07-13T08:05:23;100780.28;;;21.45;52.12
5138;BME280;53959;53.626;11.410;2023-07-13T08:07:48;100776.16;;;21.77;51.84
5138;BME280;53959;53.626;11.410;2023-07-13T08:10:14;100770.41;;;22.07;51.39
5138;BME280;53959;53.626;11.410;2023-07-13T08:12:40;100778.78;;;21.79;51.63
5138;BME280;53959;53.626;11.410;2023-07-13T08:15:08;100756.34;;;22.15;51.44
5138;BME280;53959;53.626;11.410;2023-07-13T08:17:34;100771.81;;;22.63;50.38
5138;BME280;53959;53.626;11.410;2023-07-13T08:20:00;100773.88;;;22.96;50.33
5138;BME280;53959;53.626;11.410;2023-07-13T08:22:25;100766.75;;;22.09;51.65
5138;BME280;53959;53.626;11.410;2023-07-13T08:24:51;100784.88;;;23.17;49.45
5138;BME280;53959;53.626;11.410;2023-07-13T08:27:24;100768.00;;;23.02;49.76
5138;BME280;53959;53.626;11.410;2023-07-13T08:29:50;100769.06;;;23.70;49.36
5138;BME280;53959;53.626;11.410;2023-07-13T08:32:17;100771.50;;;25.48;45.54
5138;BME280;53959;53.626;11.410;2023-07-13T08:34:43;100771.28;;;26.12;42.56
5138;BME280;53959;53.626;11.410;2023-07-13T08:37:08;100764.38;;;25.78;44.19
5138;BME280;53959;53.626;11.410;2023-07-13T08:39:35;100767.88;;;24.74;46.60
5138;BME280;53959;53.626;11.410;2023-07-13T08:43:06;100761.56;;;24.18;46.52
5138;BME280;53959;53.626;11.410;2023-07-13T08:45:21;100776.69;;;23.87;47.42
5138;BME280;53959;53.626;11.410;2023-07-13T08:47:58;100759.78;;;23.15;48.39
5138;BME280;53959;53.626;11.410;2023-07-13T08:50:46;100755.22;;;23.15;49.19
5138;BME280;53959;53.626;11.410;2023-07-13T08:53:13;100774.97;;;24.54;46.08
5138;BME280;53959;53.626;11.410;2023-07-13T08:55:40;100779.53;;;23.74;45.68
5138;BME280;53959;53.626;11.410;2023-07-13T08:58:11;100766.91;;;25.90;43.29
5138;BME280;53959;53.626;11.410;2023-07-13T09:00:52;100758.72;;;26.52;42.24
5138;BME280;53959;53.626;11.410;2023-07-13T09:03:27;100762.59;;;26.69;42.16
5138;BME280;53959;53.626;11.410;2023-07-13T09:05:58;100760.03;;;25.44;43.74
5138;BME280;53959;53.626;11.410;2023-07-13T09:08:38;100751.50;;;22.20;49.22
5138;BME280;53959;53.626;11.410;2023-07-13T09:16:41;100768.91;;;27.08;41.01
5138;BME280;53959;53.626;11.410;2023-07-13T09:19:11;100757.09;;;23.26;46.66
5138;BME280;53959;53.626;11.410;2023-07-13T09:21:41;100756.63;;;22.97;48.57
5138;BME280;53959;53.626;11.410;2023-07-13T09:27:14;100763.56;;;21.13;55.29
5138;BME280;53959;53.626;11.410;2023-07-13T09:29:47;100788.31;;;21.32;57.70
5138;BME280;53959;53.626;11.410;2023-07-13T09:32:14;100790.09;;;21.33;59.95
5138;BME280;53959;53.626;11.410;2023-07-13T09:34:40;100795.63;;;21.04;61.96
5138;BME280;53959;53.626;11.410;2023-07-13T09:37:05;100789.44;;;20.34;65.46
5138;BME280;53959;53.626;11.410;2023-07-13T09:39:37;100795.19;;;20.56;65.36
5138;BME280;53959;53.626;11.410;2023-07-13T09:42:15;100789.44;;;20.34;64.99
5138;BME280;53959;53.626;11.410;2023-07-13T09:49:54;100785.63;;;20.09;64.49
5138;BME280;53959;53.626;11.410;2023-07-13T09:52:20;100787.34;;;20.25;64.59
5138;BME280;53959;53.626;11.410;2023-07-13T09:54:48;100789.00;;;20.27;64.03
5138;BME280;53959;53.626;11.410;2023-07-13T09:57:19;100796.53;;;21.18;62.27
5138;BME280;53959;53.626;11.410;2023-07-13T09:59:50;100784.00;;;23.40;56.87
5138;BME280;53959;53.626;11.410;2023-07-13T10:04:56;100789.41;;;22.44;57.21
5138;BME280;53959;53.626;11.410;2023-07-13T10:07:22;100788.28;;;22.23;57.62
5138;BME280;53959;53.626;11.410;2023-07-13T10:09:52;100789.81;;;21.10;58.28
5138;BME280;53959;53.626;11.410;2023-07-13T10:12:18;100797.34;;;21.05;59.77
5138;BME280;53959;53.626;11.410;2023-07-13T10:14:44;100802.91;;;20.48;61.23
5138;BME280;53959;53.626;11.410;2023-07-13T10:17:12;100793.97;;;20.33;62.91
5138;BME280;53959;53.626;11.410;2023-07-13T10:19:41;100798.38;;;20.34;61.32
5138;BME280;53959;53.626;11.410;2023-07-13T10:22:27;100802.06;;;20.33;61.17
5138;BME280;53959;53.626;11.410;2023-07-13T10:24:57;100798.94;;;22.37;56.95
5138;BME280;53959;53.626;11.410;2023-07-13T10:29:59;100800.50;;;21.77;56.24
5138;BME280;53959;53.626;11.410;2023-07-13T10:32:26;100802.44;;;21.50;54.81
5138;BME280;53959;53.626;11.410;2023-07-13T10:34:52;100797.13;;;21.36;56.06
5138;BME280;53959;53.626;11.410;2023-07-13T10:37:27;100789.81;;;21.76;54.54
5138;BME280;53959;53.626;11.410;2023-07-13T10:39:56;100787.19;;;22.62;53.19
5138;BME280;53959;53.626;11.410;2023-07-13T10:42:40;100787.41;;;22.96;52.06
5138;BME280;53959;53.626;11.410;2023-07-13T10:45:18;100787.69;;;22.43;53.38
5138;BME280;53959;53.626;11.410;2023-07-13T10:47:45;100786.47;;;21.72;53.99
5138;BME280;53959;53.626;11.410;2023-07-13T10:50:20;100783.09;;;21.94;55.36
5138;BME280;53959;53.626;11.410;2023-07-13T10:52:52;100784.41;;;21.76;53.78
5138;BME280;53959;53.626;11.410;2023-07-13T10:58:41;100788.44;;;22.45;52.01
5138;BME280;53959;53.626;11.410;2023-07-13T11:01:13;100783.25;;;22.42;52.24
5138;BME280;53959;53.626;11.410;2023-07-13T11:08:54;100785.56;;;22.96;50.99
5138;BME280;53959;53.626;11.410;2023-07-13T11:24:30;100785.31;;;23.35;50.45
5138;BME280;53959;53.626;11.410;2023-07-13T11:27:30;100783.34;;;22.41;51.82
5138;BME280;53959;53.626;11.410;2023-07-13T11:30:08;100780.56;;;22.29;52.49
5138;BME280;53959;53.626;11.410;2023-07-13T11:32:35;100785.91;;;23.62;50.64
5138;BME280;53959;53.626;11.410;2023-07-13T11:35:00;100785.06;;;24.18;48.42
5138;BME280;53959;53.626;11.410;2023-07-13T11:37:27;100784.28;;;23.60;48.83
5138;BME280;53959;53.626;11.410;2023-07-13T11:39:54;100781.28;;;23.05;49.08
5138;BME280;53959;53.626;11.410;2023-07-13T11:42:20;100787.09;;;23.12;48.23
5138;BME280;53959;53.626;11.410;2023-07-13T11:44:50;100785.84;;;24.20;45.76
5138;BME280;53959;53.626;11.410;2023-07-13T11:47:22;100787.59;;;25.19;44.41
5138;BME280;53959;53.626;11.410;2023-07-13T11:49:50;100787.56;;;23.87;46.89
5138;BME280;53959;53.626;11.410;2023-07-13T11:52:23;100791.88;;;24.89;45.02
5138;BME280;53959;53.626;11.410;2023-07-13T11:54:53;100777.69;;;23.97;44.09
5138;BME280;53959;53.626;11.410;2023-07-13T11:57:26;100773.34;;;23.26;45.42
5138;BME280;53959;53.626;11.410;2023-07-13T11:59:55;100787.06;;;23.00;45.49
5138;BME280;53959;53.626;11.410;2023-07-13T12:02:42;100777.59;;;22.45;47.35
5138;BME280;53959;53.626;11.410;2023-07-13T12:05:13;100787.25;;;22.49;47.71
5138;BME280;53959;53.626;11.410;2023-07-13T12:07:40;100784.38;;;22.27;45.94
5138;BME280;53959;53.626;11.410;2023-07-13T12:12:35;100796.38;;;22.96;43.72
5138;BME280;53959;53.626;11.410;2023-07-13T12:15:06;100801.22;;;23.39;41.77
5138;BME280;53959;53.626;11.410;2023-07-13T12:17:34;100796.75;;;23.27;42.10
5138;BME280;53959;53.626;11.410;2023-07-13T12:20:00;100800.50;;;23.84;42.28
5138;BME280;53959;53.626;11.410;2023-07-13T12:22:27;100795.22;;;23.58;43.26
5138;BME280;53959;53.626;11.410;2023-07-13T12:24:52;100788.31;;;24.23;43.23
5138;BME280;53959;53.626;11.410;2023-07-13T12:27:22;100791.97;;;24.33;43.08
5138;BME280;53959;53.626;11.410;2023-07-13T12:30:15;100792.16;;;23.16;44.70
5138;BME280;53959;53.626;11.410;2023-07-13T12:33:08;100790.91;;;23.44;45.07
5138;BME280;53959;53.626;11.410;2023-07-13T12:35:46;100789.47;;;23.63;44.98
5138;BME280;53959;53.626;11.410;2023-07-13T12:38:12;100797.09;;;23.58;45.28
5138;BME280;53959;53.626;11.410;2023-07-13T12:40:38;100793.22;;;23.84;45.49
5138;BME280;53959;53.626;11.410;2023-07-13T12:43:11;100782.13;;;24.55;44.11
5138;BME280;53959;53.626;11.410;2023-07-13T12:45:37;100783.09;;;24.97;43.63
5138;BME280;53959;53.626;11.410;2023-07-13T12:48:14;100796.38;;;26.47;40.64
5138;BME280;53959;53.626;11.410;2023-07-13T12:50:43;100789.66;;;24.40;44.09
5138;BME280;53959;53.626;11.410;2023-07-13T12:53:16;100790.66;;;24.39;44.52
5138;BME280;53959;53.626;11.410;2023-07-13T12:55:47;100795.41;;;24.69;42.84
5138;BME280;53959;53.626;11.410;2023-07-13T12:58:27;100784.91;;;25.08;42.22
5138;BME280;53959;53.626;11.410;2023-07-13T13:00:55;100786.03;;;26.10;40.50
5138;BME280;53959;53.626;11.410;2023-07-13T13:03:27;100783.41;;;26.79;38.66
5138;BME280;53959;53.626;11.410;2023-07-13T13:05:58;100781.72;;;25.14;41.21
5138;BME280;53959;53.626;11.410;2023-07-13T13:08:25;100768.16;;;25.24;40.55
5138;BME280;53959;53.626;11.410;2023-07-13T13:10:51;100780.16;;;24.34;40.25
5138;BME280;53959;53.626;11.410;2023-07-13T13:13:16;100783.69;;;25.54;38.71
5138;BME280;53959;53.626;11.410;2023-07-13T13:15:41;100778.69;;;27.01;36.98
5138;BME280;53959;53.626;11.410;2023-07-13T13:18:15;100787.00;;;26.99;35.05
5138;BME280;53959;53.626;11.410;2023-07-13T13:20:41;100790.00;;;26.67;36.31
5138;BME280;53959;53.626;11.410;2023-07-13T13:23:12;100789.66;;;26.20;37.07
5138;BME280;53959;53.626;11.410;2023-07-13T13:25:37;100783.00;;;26.34;36.54
5138;BME280;53959;53.626;11.410;2023-07-13T13:28:03;100803.47;;;25.56;38.36
5138;BME280;53959;53.626;11.410;2023-07-13T13:30:28;100795.91;;;24.63;39.03
5138;BME280;53959;53.626;11.410;2023-07-13T13:32:53;100804.22;;;24.05;41.42
5138;BME280;53959;53.626;11.410;2023-07-13T13:35:20;100817.41;;;24.55;41.95
5138;BME280;53959;53.626;11.410;2023-07-13T13:37:46;100816.53;;;23.98;43.73